Time;durP1;ratioP1;P1;durP2;ratioP2;P2;SDS_P1;SDS_P2;PMS_P1;PMS_P2;Temp;Humidity;BMP_temperature;BMP_pressure;BME280_temperature;BME280_humidity;BME280_pressure;Samples;Min_cycle;Max_cycle;Signal;HPM_P1;HPM_P2
2021/01/01 00:01:35;;;;;;;69.15;8.48;;;;;;;;;;5048501;28;20026;-49
2021/01/01 00:04:03;;;;;;;70.68;9.23;;;;;;;;;;5036670;28;20033;-43
2021/01/01 00:06:30;;;;;;;58.15;8.43;;;;;;;;;;5042835;28;20029;-46
2021/01/01 00:08:57;;;;;;;55.00;7.50;;;;;;;;;;5044572;28;20020;-47
2021/01/01 00:11:25;;;;;;;49.33;8.05;;;;;;;;;;5043843;28;20021;-44
2021/01/01 00:13:52;;;;;;;81.18;11.43;;;;;;;;;;5048087;28;20043;-44
2021/01/01 00:16:19;;;;;;;87.15;9.30;;;;;;;;;;5043558;28;20496;-42
2021/01/01 00:18:48;;;;;;;61.60;8.80;;;;;;;;;;5048408;28;20029;-47
2021/01/01 00:21:15;;;;;;;65.63;9.07;;;;;;;;;;5038126;28;20061;-43
2021/01/01 00:23:42;;;;;;;64.07;9.93;;;;;;;;;;5046567;28;20079;-43
2021/01/01 00:26:15;;;;;;;91.88;12.65;;;;;;;;;;5044969;28;20029;-40
2021/01/01 00:28:46;;;;;;;92.78;13.65;;;;;;;;;;5046654;28;20442;-40
2021/01/01 00:31:21;;;;;;;109.60;16.35;;;;;;;;;;5041132;28;20029;-40
2021/01/01 00:33:48;;;;;;;125.47;16.65;;;;;;;;;;5043477;28;20032;-43
2021/01/01 00:36:16;;;;;;;138.65;20.52;;;;;;;;;;5045122;28;20051;-43
2021/01/01 00:38:50;;;;;;;135.40;17.95;;;;;;;;;;5047294;28;20017;-42
2021/01/01 00:41:23;;;;;;;125.70;18.55;;;;;;;;;;5039894;28;20043;-42
2021/01/01 00:43:51;;;;;;;116.53;16.05;;;;;;;;;;5044707;28;20515;-41
2021/01/01 00:46:18;;;;;;;113.97;17.00;;;;;;;;;;5044186;28;20040;-40
2021/01/01 00:48:45;;;;;;;92.45;14.23;;;;;;;;;;5043917;28;20116;-43
2021/01/01 00:51:12;;;;;;;104.63;14.15;;;;;;;;;;5045276;28;20041;-41
2021/01/01 00:53:39;;;;;;;97.70;14.18;;;;;;;;;;5050214;28;20037;-42
2021/01/01 00:56:06;;;;;;;95.05;14.13;;;;;;;;;;5047663;28;20568;-42
2021/01/01 00:58:33;;;;;;;87.00;13.55;;;;;;;;;;5048244;28;20112;-41
2021/01/01 01:01:01;;;;;;;111.28;15.05;;;;;;;;;;5051306;28;20029;-41
2021/01/01 01:03:28;;;;;;;90.32;14.65;;;;;;;;;;5052561;28;20029;-47
2021/01/01 01:05:55;;;;;;;93.25;13.88;;;;;;;;;;5050571;28;20025;-41
2021/01/01 01:08:22;;;;;;;87.88;13.98;;;;;;;;;;5050675;28;20031;-45
2021/01/01 01:10:49;;;;;;;93.53;14.68;;;;;;;;;;5045318;28;20028;-40
2021/01/01 01:13:16;;;;;;;99.07;16.85;;;;;;;;;;5047308;28;20102;-42
2021/01/01 01:15:44;;;;;;;164.75;24.77;;;;;;;;;;5049103;28;20040;-43
2021/01/01 01:18:11;;;;;;;167.95;26.35;;;;;;;;;;5051337;28;20057;-44
2021/01/01 01:20:38;;;;;;;182.40;27.55;;;;;;;;;;5048220;28;20029;-43
2021/01/01 01:23:05;;;;;;;171.82;29.52;;;;;;;;;;5048636;28;20032;-44
2021/01/01 01:25:32;;;;;;;162.65;27.88;;;;;;;;;;5049571;28;20491;-43
2021/01/01 01:28:00;;;;;;;138.82;27.52;;;;;;;;;;5046697;28;20429;-42
2021/01/01 01:30:27;;;;;;;143.07;27.42;;;;;;;;;;5052571;28;20025;-43
2021/01/01 01:32:54;;;;;;;138.68;25.60;;;;;;;;;;5041401;28;20140;-41
2021/01/01 01:35:21;;;;;;;119.07;25.67;;;;;;;;;;5045899;28;20472;-40
2021/01/01 01:37:48;;;;;;;119.85;25.58;;;;;;;;;;5045055;28;20084;-46
2021/01/01 01:40:15;;;;;;;135.75;23.20;;;;;;;;;;5052515;28;20025;-43
2021/01/01 01:42:43;;;;;;;123.97;26.63;;;;;;;;;;5047042;28;20033;-41
2021/01/01 01:45:12;;;;;;;122.97;24.05;;;;;;;;;;5045960;28;20574;-40
2021/01/01 01:47:42;;;;;;;108.13;24.40;;;;;;;;;;5043345;28;20023;-41
2021/01/01 01:50:12;;;;;;;113.00;25.63;;;;;;;;;;5050888;28;20029;-44
2021/01/01 01:52:45;;;;;;;118.35;24.17;;;;;;;;;;5041043;28;20090;-42
2021/01/01 01:55:17;;;;;;;100.38;23.33;;;;;;;;;;5046229;28;20064;-43
2021/01/01 01:57:51;;;;;;;95.18;24.80;;;;;;;;;;5047426;28;20037;-41
2021/01/01 02:03:00;;;;;;;88.38;24.10;;;;;;;;;;5044387;28;20064;-44
2021/01/01 02:05:32;;;;;;;97.68;24.58;;;;;;;;;;5045588;28;20562;-46
2021/01/01 02:08:01;;;;;;;101.18;24.52;;;;;;;;;;5049131;28;20120;-42
2021/01/01 02:10:28;;;;;;;97.25;24.45;;;;;;;;;;5045843;28;20608;-42
2021/01/01 02:12:55;;;;;;;102.07;24.83;;;;;;;;;;5043872;28;20486;-40
2021/01/01 02:15:21;;;;;;;78.43;22.98;;;;;;;;;;5047581;28;20079;-41
2021/01/01 02:17:48;;;;;;;89.32;23.33;;;;;;;;;;5048398;28;20025;-41
2021/01/01 02:20:16;;;;;;;108.00;23.77;;;;;;;;;;5039545;28;20025;-41
2021/01/01 02:22:43;;;;;;;80.47;24.58;;;;;;;;;;5048681;28;20577;-41
2021/01/01 02:25:11;;;;;;;89.47;25.67;;;;;;;;;;5046837;28;20043;-42
2021/01/01 02:27:39;;;;;;;83.00;23.90;;;;;;;;;;5044743;28;20048;-46
2021/01/01 02:30:06;;;;;;;82.20;24.52;;;;;;;;;;5045158;28;20040;-41
2021/01/01 02:32:33;;;;;;;81.95;24.02;;;;;;;;;;5050171;28;20029;-42
2021/01/01 02:35:00;;;;;;;82.03;24.40;;;;;;;;;;5046077;28;20029;-43
2021/01/01 02:37:27;;;;;;;76.22;23.83;;;;;;;;;;5048692;28;20048;-40
2021/01/01 02:39:55;;;;;;;88.20;25.92;;;;;;;;;;5048394;28;20066;-48
2021/01/01 02:42:22;;;;;;;77.90;23.45;;;;;;;;;;5050345;28;20029;-44
2021/01/01 02:44:49;;;;;;;94.85;25.02;;;;;;;;;;5038559;28;20095;-42
2021/01/01 02:47:16;;;;;;;67.63;22.25;;;;;;;;;;5049569;28;20032;-42
2021/01/01 02:49:44;;;;;;;82.18;22.63;;;;;;;;;;5042984;28;20029;-41
2021/01/01 02:52:11;;;;;;;75.43;23.42;;;;;;;;;;5048410;28;20074;-44
2021/01/01 02:54:38;;;;;;;76.75;23.38;;;;;;;;;;5042460;28;20025;-41
2021/01/01 02:57:05;;;;;;;67.97;20.95;;;;;;;;;;5032117;28;20029;-42
2021/01/01 02:59:32;;;;;;;60.10;20.13;;;;;;;;;;5047796;28;20093;-42
2021/01/01 03:02:00;;;;;;;80.60;22.48;;;;;;;;;;5046320;28;20060;-46
2021/01/01 03:04:27;;;;;;;76.22;20.60;;;;;;;;;;5045559;28;20032;-43
2021/01/01 03:06:54;;;;;;;63.08;20.00;;;;;;;;;;5043226;28;20033;-44
2021/01/01 03:09:21;;;;;;;64.60;20.60;;;;;;;;;;5042949;28;20029;-45
2021/01/01 03:11:48;;;;;;;72.75;20.58;;;;;;;;;;5047468;28;20104;-46
2021/01/01 03:14:15;;;;;;;67.40;20.92;;;;;;;;;;5046682;28;20384;-42
2021/01/01 03:16:42;;;;;;;56.83;18.42;;;;;;;;;;5045659;28;20037;-42
2021/01/01 03:19:09;;;;;;;60.08;18.88;;;;;;;;;;5032733;28;20365;-43
2021/01/01 03:21:36;;;;;;;54.55;19.20;;;;;;;;;;5049283;28;20047;-44
2021/01/01 03:24:03;;;;;;;60.88;18.83;;;;;;;;;;5045314;28;20105;-42
2021/01/01 03:26:30;;;;;;;55.45;18.02;;;;;;;;;;5047048;28;20040;-44
2021/01/01 03:28:57;;;;;;;45.33;16.63;;;;;;;;;;5046348;28;20021;-45
2021/01/01 03:31:24;;;;;;;56.45;18.50;;;;;;;;;;5047651;28;20091;-43
2021/01/01 03:33:51;;;;;;;59.58;17.52;;;;;;;;;;5047200;28;20021;-42
2021/01/01 03:36:18;;;;;;;54.75;17.02;;;;;;;;;;5048197;28;20032;-41
2021/01/01 03:38:46;;;;;;;53.75;17.08;;;;;;;;;;5045613;28;20044;-42
2021/01/01 03:41:14;;;;;;;47.83;17.05;;;;;;;;;;5040895;28;20040;-41
2021/01/01 03:43:41;;;;;;;50.25;15.98;;;;;;;;;;5038886;28;20082;-44
2021/01/01 03:46:09;;;;;;;51.17;18.52;;;;;;;;;;5038504;28;20025;-45
2021/01/01 03:48:36;;;;;;;51.95;17.33;;;;;;;;;;5046827;28;20031;-42
2021/01/01 03:51:03;;;;;;;58.85;16.35;;;;;;;;;;5042775;28;20120;-43
2021/01/01 03:53:31;;;;;;;57.05;16.58;;;;;;;;;;5041387;28;20393;-44
2021/01/01 03:55:58;;;;;;;46.53;14.95;;;;;;;;;;5046254;28;20106;-42
2021/01/01 03:58:26;;;;;;;46.40;15.20;;;;;;;;;;5043178;28;20052;-47
2021/01/01 04:00:54;;;;;;;51.38;16.42;;;;;;;;;;5044190;28;20033;-43
2021/01/01 04:03:22;;;;;;;45.17;15.40;;;;;;;;;;5045639;28;20506;-42
2021/01/01 04:05:50;;;;;;;65.03;13.23;;;;;;;;;;5035855;28;20032;-40
2021/01/01 04:08:17;;;;;;;57.05;9.93;;;;;;;;;;5026878;28;20052;-40
2021/01/01 04:10:45;;;;;;;45.83;7.45;;;;;;;;;;5045320;28;20044;-40
2021/01/01 04:13:13;;;;;;;44.33;7.30;;;;;;;;;;5045976;28;20064;-40
2021/01/01 04:15:41;;;;;;;55.75;7.40;;;;;;;;;;5043359;28;20107;-42
2021/01/01 04:18:08;;;;;;;45.47;6.07;;;;;;;;;;5045173;28;20040;-41
2021/01/01 04:20:36;;;;;;;43.50;6.30;;;;;;;;;;5046287;28;20052;-40
2021/01/01 04:23:04;;;;;;;51.60;6.78;;;;;;;;;;5022894;28;20028;-42
2021/01/01 04:25:31;;;;;;;59.42;7.47;;;;;;;;;;5041720;28;20047;-40
2021/01/01 04:27:58;;;;;;;53.60;5.68;;;;;;;;;;5044074;28;20614;-40
2021/01/01 04:30:25;;;;;;;39.67;3.80;;;;;;;;;;5045655;28;20021;-38
2021/01/01 04:32:52;;;;;;;49.53;4.32;;;;;;;;;;5044580;28;20028;-40
2021/01/01 04:35:19;;;;;;;49.97;5.38;;;;;;;;;;5046613;28;20043;-39
2021/01/01 04:37:46;;;;;;;53.75;4.88;;;;;;;;;;5045045;28;20025;-44
2021/01/01 04:40:14;;;;;;;36.40;4.32;;;;;;;;;;5044851;28;20052;-44
2021/01/01 04:42:42;;;;;;;41.97;3.85;;;;;;;;;;5046271;28;20369;-43
2021/01/01 04:45:09;;;;;;;37.45;2.97;;;;;;;;;;5046863;28;20037;-43
2021/01/01 04:47:37;;;;;;;26.23;3.75;;;;;;;;;;5045760;28;20083;-42
2021/01/01 04:50:05;;;;;;;26.13;3.00;;;;;;;;;;5047268;28;20028;-42
2021/01/01 04:52:33;;;;;;;56.67;6.90;;;;;;;;;;5023583;28;20460;-42
2021/01/01 04:55:01;;;;;;;93.07;8.05;;;;;;;;;;5046146;28;20037;-44
2021/01/01 04:57:30;;;;;;;96.15;8.95;;;;;;;;;;5028567;28;20120;-43
2021/01/01 04:59:57;;;;;;;126.80;10.45;;;;;;;;;;5044722;28;20025;-43
2021/01/01 05:02:25;;;;;;;128.18;12.65;;;;;;;;;;5046945;28;20024;-43
2021/01/01 05:04:57;;;;;;;93.35;8.60;;;;;;;;;;5043718;28;20047;-43
2021/01/01 05:07:24;;;;;;;;;;;;;;;;;;5044849;28;20029;-42
2021/01/01 05:09:51;;;;;;;164.85;13.48;;;;;;;;;;5045374;28;20579;-42
2021/01/01 05:12:19;;;;;;;164.07;14.23;;;;;;;;;;5044578;28;20028;-43
2021/01/01 05:14:47;;;;;;;147.13;12.93;;;;;;;;;;5043329;28;20112;-43
2021/01/01 05:17:14;;;;;;;111.72;12.65;;;;;;;;;;5042868;28;20033;-42
2021/01/01 05:19:43;;;;;;;133.70;12.68;;;;;;;;;;5045837;28;20740;-42
2021/01/01 05:22:12;;;;;;;154.25;16.48;;;;;;;;;;5041770;28;20025;-43
2021/01/01 05:24:40;;;;;;;150.93;14.70;;;;;;;;;;5039220;28;20040;-44
2021/01/01 05:27:11;;;;;;;242.75;21.75;;;;;;;;;;5047088;28;20108;-43
2021/01/01 05:29:43;;;;;;;287.30;27.42;;;;;;;;;;5045489;28;20056;-44
2021/01/01 05:32:11;;;;;;;286.05;24.05;;;;;;;;;;5046914;28;20024;-43
2021/01/01 05:34:47;;;;;;;235.13;23.58;;;;;;;;;;5043639;28;20032;-42
2021/01/01 05:37:25;;;;;;;256.60;24.85;;;;;;;;;;5044881;28;20116;-45
2021/01/01 05:40:02;;;;;;;249.00;23.48;;;;;;;;;;5048150;28;20057;-43
2021/01/01 05:42:29;;;;;;;258.67;25.95;;;;;;;;;;5045807;28;20102;-42
2021/01/01 05:44:56;;;;;;;225.80;21.15;;;;;;;;;;5049054;28;20481;-43
2021/01/01 05:47:23;;;;;;;234.80;21.77;;;;;;;;;;5050395;28;20044;-42
2021/01/01 05:49:50;;;;;;;238.20;21.63;;;;;;;;;;5043818;28;20079;-43
2021/01/01 05:52:19;;;;;;;265.20;23.02;;;;;;;;;;5046472;28;20045;-42
2021/01/01 05:54:46;;;;;;;305.17;22.92;;;;;;;;;;5039785;28;20094;-42
2021/01/01 05:57:14;;;;;;;225.32;21.40;;;;;;;;;;5044157;28;20033;-42
2021/01/01 05:59:42;;;;;;;261.65;26.23;;;;;;;;;;5047692;28;20025;-42
2021/01/01 06:02:10;;;;;;;258.42;23.45;;;;;;;;;;5046267;28;20043;-42
2021/01/01 06:04:37;;;;;;;230.80;25.48;;;;;;;;;;5047249;28;20035;-44
2021/01/01 06:07:09;;;;;;;209.35;19.55;;;;;;;;;;5047120;28;20057;-41
2021/01/01 06:09:36;;;;;;;241.18;23.75;;;;;;;;;;5048257;28;20028;-43
2021/01/01 06:12:05;;;;;;;240.75;24.77;;;;;;;;;;5047026;28;20381;-43
2021/01/01 06:14:32;;;;;;;235.45;23.52;;;;;;;;;;5047784;28;20035;-42
2021/01/01 06:17:19;;;;;;;192.95;21.50;;;;;;;;;;5046919;28;20036;-41
2021/01/01 06:19:48;;;;;;;214.95;20.90;;;;;;;;;;5047803;28;20024;-42
2021/01/01 06:22:23;;;;;;;215.30;23.30;;;;;;;;;;5046247;28;20039;-42
2021/01/01 06:24:51;;;;;;;219.48;22.58;;;;;;;;;;5048716;28;20725;-42
2021/01/01 06:27:18;;;;;;;167.48;18.42;;;;;;;;;;5044290;28;20505;-44
2021/01/01 06:29:50;;;;;;;138.85;14.85;;;;;;;;;;5047239;28;20028;-41
2021/01/01 06:32:19;;;;;;;114.53;12.43;;;;;;;;;;5048707;28;20036;-43
2021/01/01 06:34:46;;;;;;;99.53;11.10;;;;;;;;;;5048832;28;20420;-43
2021/01/01 06:37:48;;;;;;;86.72;8.73;;;;;;;;;;5047097;28;20032;-43
2021/01/01 06:40:21;;;;;;;62.42;6.40;;;;;;;;;;5014657;28;20531;-42
2021/01/01 06:42:53;;;;;;;61.75;6.60;;;;;;;;;;5037367;28;20040;-42
2021/01/01 06:45:40;;;;;;;60.03;5.77;;;;;;;;;;5040574;28;20507;-42
2021/01/01 06:48:10;;;;;;;55.45;5.70;;;;;;;;;;5047035;28;20515;-44
2021/01/01 06:50:38;;;;;;;44.88;4.53;;;;;;;;;;5033770;28;21526;-43
2021/01/01 06:53:06;;;;;;;54.47;5.90;;;;;;;;;;5045689;28;20090;-42
2021/01/01 06:55:34;;;;;;;55.90;5.93;;;;;;;;;;5048423;28;20025;-42
2021/01/01 06:58:01;;;;;;;74.25;7.65;;;;;;;;;;5045280;28;20033;-42
2021/01/01 07:00:46;;;;;;;77.40;6.88;;;;;;;;;;5044986;28;20052;-41
2021/01/01 07:03:29;;;;;;;87.75;7.82;;;;;;;;;;5046312;28;20074;-42
2021/01/01 07:05:56;;;;;;;82.32;8.63;;;;;;;;;;5048308;28;20092;-39
2021/01/01 07:08:42;;;;;;;80.47;7.90;;;;;;;;;;5045981;28;20021;-39
2021/01/01 07:11:09;;;;;;;86.75;8.77;;;;;;;;;;5047966;28;20135;-48
2021/01/01 07:13:45;;;;;;;76.30;5.68;;;;;;;;;;5048118;28;20025;-41
2021/01/01 07:16:12;;;;;;;53.17;5.00;;;;;;;;;;5047795;28;20033;-40
2021/01/01 07:18:39;;;;;;;68.53;5.95;;;;;;;;;;5045356;28;20035;-39
2021/01/01 07:21:10;;;;;;;45.25;5.00;;;;;;;;;;5046619;28;20112;-45
2021/01/01 07:23:38;;;;;;;63.40;7.30;;;;;;;;;;5043126;28;20048;-44
2021/01/01 07:26:06;;;;;;;81.50;7.30;;;;;;;;;;5036215;28;20066;-39
2021/01/01 07:28:33;;;;;;;83.68;8.32;;;;;;;;;;5039075;28;20025;-41
2021/01/01 07:31:00;;;;;;;74.60;6.70;;;;;;;;;;5041264;28;20025;-40
2021/01/01 07:33:28;;;;;;;83.25;8.02;;;;;;;;;;5042977;28;20122;-45
2021/01/01 07:35:56;;;;;;;63.55;7.20;;;;;;;;;;5039133;28;20060;-46
2021/01/01 07:38:24;;;;;;;69.28;6.47;;;;;;;;;;5042982;28;20460;-49
2021/01/01 07:40:51;;;;;;;68.22;7.88;;;;;;;;;;5044614;28;20381;-54
2021/01/01 07:43:19;;;;;;;68.32;7.43;;;;;;;;;;5043263;28;20472;-42
2021/01/01 07:45:46;;;;;;;63.92;5.80;;;;;;;;;;5034950;28;20036;-55
2021/01/01 07:48:13;;;;;;;77.13;6.80;;;;;;;;;;5044110;28;20037;-50
2021/01/01 07:50:40;;;;;;;76.00;7.95;;;;;;;;;;5049892;28;20024;-48
2021/01/01 07:53:11;;;;;;;81.80;7.40;;;;;;;;;;5047365;28;20420;-53
2021/01/01 07:55:39;;;;;;;83.95;6.53;;;;;;;;;;5037917;28;20128;-49
2021/01/01 07:58:10;;;;;;;80.63;7.70;;;;;;;;;;5037404;28;20088;-52
2021/01/01 08:00:38;;;;;;;78.40;7.47;;;;;;;;;;5041597;28;20112;-52
2021/01/01 08:03:06;;;;;;;57.05;6.38;;;;;;;;;;5036433;28;20481;-54
2021/01/01 08:05:33;;;;;;;59.17;5.57;;;;;;;;;;5035466;28;20029;-55
2021/01/01 08:08:13;;;;;;;44.35;5.30;;;;;;;;;;5033451;28;20027;-53
2021/01/01 08:10:41;;;;;;;51.85;5.50;;;;;;;;;;5046187;28;20101;-52
2021/01/01 08:13:17;;;;;;;46.00;5.00;;;;;;;;;;5048579;28;20033;-51
2021/01/01 08:15:45;;;;;;;39.40;3.60;;;;;;;;;;5049814;28;20155;-53
2021/01/01 08:18:15;;;;;;;38.58;4.22;;;;;;;;;;5051985;28;20032;-54
2021/01/01 08:20:46;;;;;;;23.38;3.13;;;;;;;;;;5047448;28;20025;-51
2021/01/01 08:23:15;;;;;;;42.88;3.22;;;;;;;;;;5050373;28;20118;-50
2021/01/01 08:25:42;;;;;;;41.17;5.05;;;;;;;;;;5050334;28;20024;-51
2021/01/01 08:28:09;;;;;;;34.53;3.30;;;;;;;;;;5049345;28;20045;-52
2021/01/01 08:30:38;;;;;;;23.83;2.70;;;;;;;;;;5049869;28;20028;-52
2021/01/01 08:33:05;;;;;;;27.85;2.90;;;;;;;;;;5051010;28;20036;-50
2021/01/01 08:35:33;;;;;;;25.88;3.60;;;;;;;;;;5050055;28;20029;-54
2021/01/01 08:38:00;;;;;;;25.38;2.63;;;;;;;;;;5049323;28;20477;-46
2021/01/01 08:40:27;;;;;;;33.28;3.17;;;;;;;;;;5047351;28;20033;-47
2021/01/01 08:42:55;;;;;;;27.15;2.60;;;;;;;;;;5050012;28;20032;-47
2021/01/01 08:45:23;;;;;;;20.92;2.72;;;;;;;;;;5051280;28;20057;-47
2021/01/01 08:47:51;;;;;;;17.98;2.38;;;;;;;;;;5036223;28;20052;-54
2021/01/01 08:50:22;;;;;;;17.48;1.90;;;;;;;;;;5041545;28;20512;-51
2021/01/01 08:52:51;;;;;;;16.47;1.90;;;;;;;;;;5047679;28;20056;-50
2021/01/01 08:55:18;;;;;;;18.13;1.90;;;;;;;;;;5051546;28;20268;-56
2021/01/01 08:57:45;;;;;;;17.23;1.90;;;;;;;;;;5044682;28;20041;-49
2021/01/01 09:00:12;;;;;;;10.50;1.33;;;;;;;;;;5037114;28;20120;-56
2021/01/01 09:02:40;;;;;;;17.27;1.77;;;;;;;;;;5045480;28;20420;-55
2021/01/01 09:05:11;;;;;;;15.57;2.28;;;;;;;;;;5049889;28;20017;-44
2021/01/01 09:07:38;;;;;;;22.90;2.15;;;;;;;;;;5032041;28;20018;-53
2021/01/01 09:10:21;;;;;;;15.48;1.27;;;;;;;;;;5039824;28;20040;-47
2021/01/01 09:12:47;;;;;;;15.07;1.75;;;;;;;;;;5047007;28;20025;-51
2021/01/01 09:15:27;;;;;;;55.10;4.38;;;;;;;;;;5054163;28;20139;-48
2021/01/01 09:18:03;;;;;;;33.72;3.30;;;;;;;;;;5051215;28;20029;-48
2021/01/01 09:20:30;;;;;;;25.30;1.95;;;;;;;;;;5035635;28;20029;-45
2021/01/01 09:23:01;;;;;;;14.32;1.95;;;;;;;;;;5037985;28;20025;-47
2021/01/01 09:25:28;;;;;;;23.35;2.00;;;;;;;;;;5035247;28;20028;-52
2021/01/01 09:27:56;;;;;;;21.63;2.83;;;;;;;;;;5035751;28;20050;-45
2021/01/01 09:30:24;;;;;;;16.88;1.80;;;;;;;;;;5035758;28;20032;-52
2021/01/01 09:32:54;;;;;;;26.98;2.33;;;;;;;;;;5041513;28;20112;-54
2021/01/01 09:35:21;;;;;;;58.40;6.28;;;;;;;;;;5034780;28;20040;-45
2021/01/01 09:37:48;;;;;;;38.40;3.72;;;;;;;;;;5033765;28;20033;-43
2021/01/01 09:40:16;;;;;;;43.95;4.38;;;;;;;;;;5053251;28;20017;-47
2021/01/01 09:42:43;;;;;;;42.75;4.38;;;;;;;;;;5043260;28;20116;-52
2021/01/01 09:45:10;;;;;;;47.72;5.07;;;;;;;;;;5040133;28;20043;-43
2021/01/01 09:47:37;;;;;;;38.50;3.60;;;;;;;;;;5049443;28;20022;-53
2021/01/01 09:50:05;;;;;;;34.08;3.75;;;;;;;;;;5034679;28;20025;-47
2021/01/01 09:52:32;;;;;;;29.25;2.83;;;;;;;;;;5051579;28;20131;-48
2021/01/01 09:54:59;;;;;;;22.52;2.10;;;;;;;;;;5041673;28;20021;-41
2021/01/01 09:57:27;;;;;;;36.60;3.03;;;;;;;;;;5034203;28;20069;-40
2021/01/01 09:59:54;;;;;;;21.77;2.72;;;;;;;;;;5034779;28;20014;-41
2021/01/01 10:02:21;;;;;;;19.38;2.20;;;;;;;;;;5049614;28;20092;-41
2021/01/01 10:04:47;;;;;;;12.80;2.63;;;;;;;;;;5043008;28;20075;-41
2021/01/01 10:07:15;;;;;;;15.88;3.10;;;;;;;;;;5034365;28;20481;-41
2021/01/01 10:09:43;;;;;;;20.70;2.40;;;;;;;;;;5034644;28;20102;-42
2021/01/01 10:12:12;;;;;;;35.08;4.63;;;;;;;;;;5048523;28;20493;-41
2021/01/01 10:14:39;;;;;;;46.38;5.35;;;;;;;;;;5044410;28;20029;-45
2021/01/01 10:17:07;;;;;;;32.67;3.55;;;;;;;;;;5033425;28;20038;-42
2021/01/01 10:19:34;;;;;;;33.65;3.75;;;;;;;;;;5040793;28;20059;-41
2021/01/01 10:22:01;;;;;;;37.58;3.33;;;;;;;;;;5052741;28;20040;-41
2021/01/01 10:24:28;;;;;;;34.85;3.47;;;;;;;;;;5048381;28;20353;-42
2021/01/01 10:26:58;;;;;;;26.30;3.40;;;;;;;;;;5052864;28;20186;-43
2021/01/01 10:29:25;;;;;;;26.95;4.47;;;;;;;;;;5051634;28;20029;-43
2021/01/01 10:31:52;;;;;;;15.43;3.00;;;;;;;;;;5044570;28;20121;-43
2021/01/01 10:34:19;;;;;;;17.83;2.70;;;;;;;;;;5046853;28;20417;-42
2021/01/01 10:36:46;;;;;;;14.90;1.77;;;;;;;;;;5034995;28;20147;-50
2021/01/01 10:39:13;;;;;;;7.15;1.27;;;;;;;;;;5034684;28;20563;-51
2021/01/01 10:41:40;;;;;;;13.00;1.60;;;;;;;;;;5022977;28;20083;-56
2021/01/01 10:44:07;;;;;;;9.45;1.52;;;;;;;;;;5034800;28;20030;-42
2021/01/01 10:46:34;;;;;;;7.13;1.10;;;;;;;;;;5033515;28;20025;-44
2021/01/01 10:49:01;;;;;;;8.32;1.67;;;;;;;;;;5044596;28;20025;-41
2021/01/01 10:51:28;;;;;;;12.70;1.42;;;;;;;;;;5033848;28;20505;-42
2021/01/01 10:53:55;;;;;;;4.20;0.98;;;;;;;;;;5035430;28;20103;-42
2021/01/01 10:56:23;;;;;;;7.28;0.60;;;;;;;;;;5051153;28;20124;-43
2021/01/01 10:58:50;;;;;;;4.38;0.88;;;;;;;;;;5053210;28;20021;-42
2021/01/01 11:01:25;;;;;;;6.78;1.30;;;;;;;;;;5035438;28;20025;-41
2021/01/01 11:03:52;;;;;;;5.72;0.85;;;;;;;;;;5034448;28;20018;-43
2021/01/01 11:06:20;;;;;;;12.02;1.42;;;;;;;;;;5048247;28;20537;-42
2021/01/01 11:08:47;;;;;;;6.97;1.05;;;;;;;;;;5052048;28;20048;-43
2021/01/01 11:11:15;;;;;;;9.20;1.45;;;;;;;;;;5040442;28;20040;-42
2021/01/01 11:13:48;;;;;;;4.95;0.90;;;;;;;;;;5031739;28;20442;-42
2021/01/01 12:20:24;;;;;;;10.68;0.85;;;;;;;;;;5043923;28;20109;-48
2021/01/01 12:22:52;;;;;;;9.98;1.10;;;;;;;;;;5036772;28;20041;-47
2021/01/01 12:25:19;;;;;;;12.65;1.00;;;;;;;;;;5042675;28;20086;-47
2021/01/01 12:27:47;;;;;;;8.10;0.90;;;;;;;;;;5051796;28;20105;-50
2021/01/01 12:30:14;;;;;;;11.40;1.00;;;;;;;;;;5035469;28;20021;-46
2021/01/01 12:32:42;;;;;;;6.93;0.90;;;;;;;;;;5051204;28;20060;-46
2021/01/01 12:35:11;;;;;;;20.35;1.48;;;;;;;;;;5040910;28;20075;-43
2021/01/01 12:37:38;;;;;;;9.38;1.42;;;;;;;;;;5031856;28;20041;-49
2021/01/01 12:40:06;;;;;;;14.07;1.10;;;;;;;;;;5036964;28;20200;-50
2021/01/01 12:42:33;;;;;;;5.25;0.98;;;;;;;;;;5023113;28;20028;-44
2021/01/01 12:45:00;;;;;;;11.45;1.20;;;;;;;;;;5047222;28;20083;-48
2021/01/01 12:47:27;;;;;;;13.80;1.10;;;;;;;;;;5046470;28;20033;-52
2021/01/01 12:49:54;;;;;;;11.27;1.10;;;;;;;;;;5035748;28;20026;-53
2021/01/01 12:52:21;;;;;;;10.15;0.95;;;;;;;;;;5043232;28;20103;-45
2021/01/01 12:54:48;;;;;;;4.53;0.70;;;;;;;;;;5037784;28;20021;-47
2021/01/01 12:57:15;;;;;;;10.07;0.80;;;;;;;;;;5054874;28;20059;-52
2021/01/01 12:59:42;;;;;;;13.57;1.30;;;;;;;;;;5044378;28;20025;-49
2021/01/01 13:02:09;;;;;;;13.38;1.02;;;;;;;;;;5038988;28;20029;-44
2021/01/01 13:04:36;;;;;;;11.65;1.10;;;;;;;;;;5046435;28;20025;-55
2021/01/01 13:07:03;;;;;;;9.38;1.33;;;;;;;;;;5055149;28;20036;-45
2021/01/01 13:09:30;;;;;;;7.32;1.38;;;;;;;;;;5054933;28;20056;-43
2021/01/01 13:11:57;;;;;;;8.77;0.88;;;;;;;;;;5051411;28;20472;-43
2021/01/01 13:14:24;;;;;;;16.70;2.00;;;;;;;;;;5054599;28;20024;-48
2021/01/01 13:16:51;;;;;;;12.35;1.63;;;;;;;;;;5036051;28;20138;-43
2021/01/01 13:19:18;;;;;;;7.25;1.08;;;;;;;;;;5037046;28;20022;-47
2021/01/01 13:21:45;;;;;;;6.38;1.00;;;;;;;;;;5053662;28;20041;-47
2021/01/01 13:24:12;;;;;;;11.00;1.45;;;;;;;;;;5035158;28;20029;-48
2021/01/01 13:26:39;;;;;;;10.60;1.38;;;;;;;;;;5051608;28;20108;-43
2021/01/01 13:29:06;;;;;;;9.60;1.30;;;;;;;;;;5040159;28;20018;-43
2021/01/01 13:31:37;;;;;;;12.25;1.40;;;;;;;;;;5053485;28;20039;-41
2021/01/01 13:34:05;;;;;;;17.27;1.80;;;;;;;;;;5034649;28;20022;-42
2021/01/01 13:36:32;;;;;;;13.10;1.30;;;;;;;;;;5035359;28;20037;-45
2021/01/01 13:38:59;;;;;;;15.07;1.30;;;;;;;;;;5035757;28;20029;-44
2021/01/01 13:41:26;;;;;;;8.15;1.20;;;;;;;;;;5050742;28;20472;-42
2021/01/01 13:43:53;;;;;;;3.75;1.13;;;;;;;;;;5053291;28;20021;-43
2021/01/01 13:46:22;;;;;;;10.00;0.90;;;;;;;;;;5045507;28;20052;-42
2021/01/01 13:48:49;;;;;;;10.25;1.40;;;;;;;;;;5046205;28;20119;-51
2021/01/01 13:51:16;;;;;;;7.10;0.98;;;;;;;;;;5053332;28;20040;-49
2021/01/01 13:53:43;;;;;;;13.85;1.88;;;;;;;;;;5045169;28;20032;-45
2021/01/01 13:56:15;;;;;;;7.53;1.02;;;;;;;;;;5048862;28;20401;-42
2021/01/01 13:58:42;;;;;;;12.73;1.20;;;;;;;;;;5052466;28;20045;-42
2021/01/01 14:01:09;;;;;;;7.85;0.93;;;;;;;;;;5053842;28;20132;-41
2021/01/01 14:03:36;;;;;;;5.88;1.25;;;;;;;;;;5051594;28;20052;-43
2021/01/01 14:06:03;;;;;;;16.17;1.67;;;;;;;;;;5049592;28;20029;-43
2021/01/01 14:08:30;;;;;;;25.77;2.35;;;;;;;;;;5052465;28;20050;-43
2021/01/01 14:10:57;;;;;;;15.45;1.30;;;;;;;;;;5046365;28;20029;-41
2021/01/01 14:13:24;;;;;;;11.57;1.35;;;;;;;;;;5048701;28;20021;-41
2021/01/01 14:15:51;;;;;;;14.50;1.33;;;;;;;;;;5047507;28;20052;-47
2021/01/01 14:18:18;;;;;;;10.43;1.13;;;;;;;;;;5051557;28;20037;-43
2021/01/01 14:20:45;;;;;;;14.73;2.03;;;;;;;;;;5034941;28;20495;-51
2021/01/01 14:23:12;;;;;;;7.85;1.33;;;;;;;;;;5033876;28;20035;-43
2021/01/01 14:25:42;;;;;;;13.63;1.30;;;;;;;;;;5045185;28;20032;-49
2021/01/01 14:28:10;;;;;;;11.27;1.40;;;;;;;;;;5047240;28;20033;-45
2021/01/01 14:30:38;;;;;;;9.57;2.10;;;;;;;;;;5051390;28;20067;-44
2021/01/01 14:33:05;;;;;;;15.18;1.23;;;;;;;;;;5051756;28;20025;-41
2021/01/01 14:35:33;;;;;;;7.70;1.42;;;;;;;;;;5052467;28;20036;-43
2021/01/01 14:38:00;;;;;;;19.77;1.58;;;;;;;;;;5053122;28;20684;-42
2021/01/01 14:40:27;;;;;;;16.00;2.28;;;;;;;;;;5043221;28;20029;-44
2021/01/01 14:42:54;;;;;;;12.02;1.40;;;;;;;;;;5050929;28;20021;-44
2021/01/01 14:45:21;;;;;;;10.85;1.85;;;;;;;;;;5048123;28;20018;-43
2021/01/01 14:47:48;;;;;;;15.50;1.75;;;;;;;;;;5050700;28;20033;-42
2021/01/01 14:50:15;;;;;;;26.25;2.25;;;;;;;;;;5049206;28;20021;-42
2021/01/01 14:52:42;;;;;;;15.90;2.22;;;;;;;;;;5049731;28;20041;-44
2021/01/01 14:55:10;;;;;;;24.50;2.10;;;;;;;;;;5047349;28;20494;-43
2021/01/01 14:57:38;;;;;;;13.50;2.33;;;;;;;;;;5040445;28;20539;-44
2021/01/01 15:00:08;;;;;;;13.20;1.80;;;;;;;;;;5043077;28;20021;-42
2021/01/01 15:02:35;;;;;;;17.25;2.28;;;;;;;;;;5052242;28;20021;-44
2021/01/01 15:05:03;;;;;;;20.33;2.15;;;;;;;;;;5046067;28;20370;-43
2021/01/01 15:07:29;;;;;;;22.48;2.08;;;;;;;;;;5044145;28;20469;-43
2021/01/01 15:09:56;;;;;;;17.30;2.35;;;;;;;;;;5049884;28;20059;-44
2021/01/01 15:12:23;;;;;;;23.27;2.33;;;;;;;;;;5049956;28;20037;-46
2021/01/01 15:14:50;;;;;;;22.23;2.65;;;;;;;;;;5043953;28;20127;-45
2021/01/01 15:17:17;;;;;;;13.73;2.03;;;;;;;;;;5047327;28;20032;-43
2021/01/01 15:19:45;;;;;;;11.43;2.42;;;;;;;;;;5045067;28;20029;-46
2021/01/01 15:22:15;;;;;;;19.70;2.65;;;;;;;;;;5035645;28;20053;-43
2021/01/01 15:24:42;;;;;;;15.70;1.98;;;;;;;;;;5048558;28;20067;-45
2021/01/01 15:27:10;;;;;;;12.32;2.53;;;;;;;;;;5045158;28;20048;-43
2021/01/01 15:29:37;;;;;;;17.67;2.30;;;;;;;;;;5047305;28;20071;-48
2021/01/01 15:32:04;;;;;;;13.15;2.00;;;;;;;;;;5050206;28;20138;-51
2021/01/01 15:34:31;;;;;;;14.88;1.98;;;;;;;;;;5048047;28;20071;-49
2021/01/01 15:36:58;;;;;;;15.02;1.98;;;;;;;;;;5045566;28;20124;-47